GTI518 KBOS-KFLL
Flight info
| Callsign | GTI518 |
|---|---|
| Flight time | N/A |
| Altitude | 38000 |
| Route | SSOXS7 SSOXS Q167 RIFLE HEADI Q97 KALDA Q161 CHIEZ Y291 MAJIK CUUDA3 |
| Aircraft | B77F/L-VGDW/C |
Departure
| Time | 2026-05-03 21:01 |
|---|---|
| Airport | Boston Logan International Airport (KBOS) |
Arrival
| Time | N/A |
|---|---|
| Airport | Fort Lauderdale Hollywood International Airport (KFLL) |
| Time | Latitude | Longitude | Altitude | Speed | Heading |
|---|---|---|---|---|---|
| 2026-05-03 20:15 | 42.37424 | -71.02630 | 30 ft | 0 kts | 1° |
| 2026-05-03 20:44 | 42.37418 | -71.02630 | 30 ft | 1 kts | 1° |
| 2026-05-03 20:44 | 42.37407 | -71.02631 | 28 ft | 2 kts | 1° |
| 2026-05-03 20:44 | 42.37391 | -71.02632 | 28 ft | 3 kts | 15° |
| 2026-05-03 20:45 | 42.37374 | -71.02643 | 28 ft | 3 kts | 47° |
| 2026-05-03 20:45 | 42.37367 | -71.02665 | 30 ft | 3 kts | 103° |
| 2026-05-03 20:45 | 42.37369 | -71.02676 | 29 ft | 0 kts | 117° |
| 2026-05-03 20:50 | 42.37350 | -71.02639 | 29 ft | 12 kts | 128° |
| 2026-05-03 20:50 | 42.37289 | -71.02539 | 30 ft | 15 kts | 130° |
| 2026-05-03 20:50 | 42.37201 | -71.02415 | 30 ft | 19 kts | 133° |
| 2026-05-03 20:51 | 42.37156 | -71.02263 | 30 ft | 19 kts | 70° |
| 2026-05-03 20:51 | 42.37229 | -71.02129 | 30 ft | 17 kts | 69° |
| 2026-05-03 20:51 | 42.37220 | -71.01973 | 29 ft | 16 kts | 112° |
| 2026-05-03 20:51 | 42.37161 | -71.01827 | 29 ft | 22 kts | 123° |
| 2026-05-03 20:52 | 42.37074 | -71.01662 | 29 ft | 21 kts | 131° |
| 2026-05-03 20:52 | 42.36974 | -71.01517 | 30 ft | 21 kts | 134° |
| 2026-05-03 20:52 | 42.36871 | -71.01376 | 30 ft | 21 kts | 135° |
| 2026-05-03 20:52 | 42.36809 | -71.01292 | 30 ft | 0 kts | 136° |
| 2026-05-03 20:53 | 42.36762 | -71.01251 | 30 ft | 12 kts | 162° |
| 2026-05-03 20:53 | 42.36686 | -71.01220 | 30 ft | 12 kts | 131° |
| 2026-05-03 20:53 | 42.36661 | -71.01141 | 30 ft | 0 kts | 111° |
| 2026-05-03 20:54 | 42.36657 | -71.01131 | 30 ft | 0 kts | 111° |
| 2026-05-03 20:54 | 42.36548 | -71.01077 | 30 ft | 20 kts | 197° |
| 2026-05-03 20:54 | 42.36384 | -71.01149 | 30 ft | 26 kts | 198° |
| 2026-05-03 20:55 | 42.36258 | -71.01130 | 29 ft | 15 kts | 126° |
| 2026-05-03 20:55 | 42.36213 | -71.01000 | 29 ft | 15 kts | 113° |
| 2026-05-03 20:55 | 42.36172 | -71.00872 | 29 ft | 10 kts | 114° |
| 2026-05-03 20:55 | 42.36170 | -71.00866 | 29 ft | 0 kts | 114° |
| 2026-05-03 20:56 | 42.36128 | -71.00740 | 30 ft | 26 kts | 113° |
| 2026-05-03 20:56 | 42.36065 | -71.00499 | 29 ft | 27 kts | 109° |
| 2026-05-03 20:56 | 42.36003 | -71.00262 | 29 ft | 24 kts | 109° |
| 2026-05-03 20:57 | 42.35982 | -71.00179 | 29 ft | 1 kts | 109° |
| 2026-05-03 20:57 | 42.35942 | -71.00077 | 29 ft | 1 kts | 125° |
| 2026-05-03 20:59 | 42.35912 | -71.00027 | 32 ft | 19 kts | 132° |
| 2026-05-03 20:59 | 42.35774 | -70.99842 | 29 ft | 31 kts | 135° |
| 2026-05-03 20:59 | 42.35625 | -70.99642 | 29 ft | 30 kts | 135° |
| 2026-05-03 21:00 | 42.35507 | -70.99473 | 29 ft | 21 kts | 118° |
| 2026-05-03 21:00 | 42.35507 | -70.99329 | 29 ft | 25 kts | 65° |
| 2026-05-03 21:00 | 42.35602 | -70.99345 | 29 ft | 0 kts | 274° |
| 2026-05-03 21:00 | 42.35632 | -70.99388 | 27 ft | 21 kts | 315° |
| 2026-05-03 21:01 | 42.35926 | -70.99782 | 28 ft | 98 kts | 315° |
| 2026-05-03 21:01 | 42.36585 | -71.00668 | 31 ft | 168 kts | 315° |
| 2026-05-03 21:01 | 42.37511 | -71.01925 | 221 ft | 200 kts | 313° |
| 2026-05-03 21:01 | 42.38496 | -71.03266 | 893 ft | 205 kts | 314° |
| 2026-05-03 21:02 | 42.39293 | -71.04787 | 1770 ft | 196 kts | 297° |
| 2026-05-03 21:02 | 42.39926 | -71.06468 | 2185 ft | 200 kts | 298° |
| 2026-05-03 21:02 | 42.40568 | -71.08128 | 2508 ft | 205 kts | 295° |
| 2026-05-03 21:02 | 42.40836 | -71.10045 | 2719 ft | 216 kts | 262° |
| 2026-05-03 21:03 | 42.40170 | -71.11930 | 2997 ft | 229 kts | 239° |
| 2026-05-03 21:03 | 42.39231 | -71.13722 | 3258 ft | 237 kts | 241° |
| 2026-05-03 21:03 | 42.38272 | -71.15584 | 3659 ft | 243 kts | 241° |
| 2026-05-03 21:03 | 42.37306 | -71.17438 | 4128 ft | 245 kts | 240° |
| 2026-05-03 21:04 | 42.36172 | -71.19204 | 4575 ft | 251 kts | 219° |
| 2026-05-03 21:04 | 42.34523 | -71.20024 | 4950 ft | 266 kts | 186° |
| 2026-05-03 21:04 | 42.32688 | -71.19571 | 5364 ft | 271 kts | 162° |
| 2026-05-03 21:04 | 42.30911 | -71.18665 | 5728 ft | 277 kts | 162° |
| 2026-05-03 21:05 | 42.29064 | -71.17752 | 6064 ft | 288 kts | 163° |
| 2026-05-03 21:05 | 42.27157 | -71.16814 | 6483 ft | 295 kts | 162° |
| 2026-05-03 21:05 | 42.25262 | -71.15741 | 6837 ft | 296 kts | 147° |
| 2026-05-03 21:05 | 42.23681 | -71.13974 | 7276 ft | 296 kts | 137° |
| 2026-05-03 21:06 | 42.22143 | -71.12086 | 7747 ft | 300 kts | 139° |
| 2026-05-03 21:06 | 42.20581 | -71.10224 | 8212 ft | 305 kts | 139° |
| 2026-05-03 21:06 | 42.18954 | -71.08311 | 8681 ft | 307 kts | 140° |
| 2026-05-03 21:06 | 42.17353 | -71.06442 | 9142 ft | 309 kts | 140° |
| 2026-05-03 21:07 | 42.15713 | -71.04533 | 9610 ft | 314 kts | 140° |
| 2026-05-03 21:07 | 42.13989 | -71.02677 | 10005 ft | 320 kts | 145° |
| 2026-05-03 21:07 | 42.12143 | -71.00936 | 10387 ft | 328 kts | 147° |
| 2026-05-03 21:07 | 42.10228 | -70.99190 | 10778 ft | 336 kts | 147° |
| 2026-05-03 21:08 | 42.08261 | -70.97398 | 11154 ft | 345 kts | 147° |
| 2026-05-03 21:08 | 42.06249 | -70.95553 | 11559 ft | 353 kts | 147° |
| 2026-05-03 21:08 | 42.04193 | -70.93657 | 11944 ft | 362 kts | 147° |
| 2026-05-03 21:08 | 42.02095 | -70.91714 | 12337 ft | 371 kts | 147° |
| 2026-05-03 21:09 | 41.99950 | -70.89720 | 12735 ft | 379 kts | 147° |
| 2026-05-03 21:09 | 41.97787 | -70.87708 | 13132 ft | 386 kts | 147° |
| 2026-05-03 21:09 | 41.95565 | -70.85641 | 13516 ft | 390 kts | 147° |
| 2026-05-03 21:09 | 41.93326 | -70.83558 | 13862 ft | 392 kts | 147° |
| 2026-05-03 21:10 | 41.91080 | -70.81472 | 14207 ft | 394 kts | 147° |
| 2026-05-03 21:10 | 41.88818 | -70.79374 | 14556 ft | 395 kts | 147° |
| 2026-05-03 21:10 | 41.86500 | -70.77405 | 14859 ft | 391 kts | 159° |
| 2026-05-03 21:10 | 41.83899 | -70.76523 | 15203 ft | 384 kts | 182° |
| 2026-05-03 21:11 | 41.81269 | -70.76855 | 15599 ft | 378 kts | 199° |
| 2026-05-03 21:11 | 41.78837 | -70.78087 | 15961 ft | 372 kts | 213° |
| 2026-05-03 21:11 | 41.76567 | -70.79784 | 16362 ft | 375 kts | 215° |
| 2026-05-03 21:11 | 41.74294 | -70.81548 | 16756 ft | 380 kts | 215° |
| 2026-05-03 21:12 | 41.71989 | -70.83339 | 17143 ft | 384 kts | 215° |
| 2026-05-03 21:12 | 41.69659 | -70.85128 | 17529 ft | 388 kts | 215° |
| 2026-05-03 21:12 | 41.67333 | -70.86892 | 17912 ft | 390 kts | 214° |
| 2026-05-03 21:12 | 41.64962 | -70.88675 | 18272 ft | 393 kts | 214° |
| 2026-05-03 21:13 | 41.62556 | -70.90477 | 18621 ft | 398 kts | 214° |
| 2026-05-03 21:13 | 41.60124 | -70.92294 | 19063 ft | 400 kts | 214° |
| 2026-05-03 21:13 | 41.57689 | -70.94110 | 19567 ft | 401 kts | 214° |
| 2026-05-03 21:13 | 41.55291 | -70.95987 | 20044 ft | 396 kts | 221° |
| 2026-05-03 21:14 | 41.53356 | -70.98507 | 20532 ft | 385 kts | 239° |
| 2026-05-03 21:14 | 41.51995 | -71.01529 | 21065 ft | 377 kts | 245° |
| 2026-05-03 21:14 | 41.50648 | -71.04539 | 21587 ft | 378 kts | 241° |
| 2026-05-03 21:14 | 41.49204 | -71.07426 | 22120 ft | 379 kts | 240° |
| 2026-05-03 21:15 | 41.47715 | -71.10318 | 22654 ft | 378 kts | 240° |
| 2026-05-03 21:15 | 41.46231 | -71.13204 | 23206 ft | 376 kts | 240° |
| 2026-05-03 21:15 | 41.44763 | -71.16085 | 23696 ft | 375 kts | 240° |
| 2026-05-03 21:15 | 41.43310 | -71.18957 | 24147 ft | 373 kts | 240° |
| 2026-05-03 21:16 | 41.41869 | -71.21817 | 24622 ft | 370 kts | 240° |
| 2026-05-03 21:16 | 41.40435 | -71.24667 | 25094 ft | 368 kts | 240° |
| 2026-05-03 21:16 | 41.39018 | -71.27484 | 25570 ft | 365 kts | 240° |
| 2026-05-03 21:16 | 41.37627 | -71.30244 | 26049 ft | 361 kts | 240° |
| 2026-05-03 21:17 | 41.36216 | -71.33037 | 26535 ft | 357 kts | 240° |
| 2026-05-03 21:17 | 41.35303 | -71.34845 | 26865 ft | 354 kts | 240° |
| 2026-05-03 21:17 | 41.33500 | -71.38410 | 27551 ft | 347 kts | 240° |
| 2026-05-03 21:17 | 41.32158 | -71.41065 | 27855 ft | 347 kts | 240° |
| 2026-05-03 21:18 | 41.30806 | -71.43741 | 28005 ft | 351 kts | 240° |
| 2026-05-03 21:18 | 41.29436 | -71.46452 | 28096 ft | 356 kts | 240° |
| 2026-05-03 21:18 | 41.26608 | -71.52042 | 28162 ft | 371 kts | 240° |
| 2026-05-03 21:19 | 41.25154 | -71.54907 | 28293 ft | 376 kts | 240° |
| 2026-05-03 21:19 | 41.23686 | -71.57795 | 28449 ft | 380 kts | 240° |
| 2026-05-03 21:19 | 41.22192 | -71.60733 | 28617 ft | 385 kts | 240° |
| 2026-05-03 21:19 | 41.20681 | -71.63699 | 28751 ft | 390 kts | 240° |
| 2026-05-03 21:20 | 41.19147 | -71.66710 | 28920 ft | 395 kts | 240° |
| 2026-05-03 21:20 | 41.17597 | -71.69751 | 29082 ft | 400 kts | 240° |
| 2026-05-03 21:20 | 41.16047 | -71.72787 | 29224 ft | 404 kts | 239° |
| 2026-05-03 21:20 | 41.14457 | -71.75900 | 29398 ft | 409 kts | 239° |
| 2026-05-03 21:21 | 41.12854 | -71.79046 | 29560 ft | 414 kts | 239° |
| 2026-05-03 21:21 | 41.11237 | -71.82227 | 29732 ft | 418 kts | 239° |
| 2026-05-03 21:21 | 41.09608 | -71.85430 | 30005 ft | 419 kts | 239° |
| 2026-05-03 21:21 | 41.07973 | -71.88643 | 30246 ft | 421 kts | 239° |
| 2026-05-03 21:22 | 41.06333 | -71.91862 | 30490 ft | 422 kts | 239° |
| 2026-05-03 21:22 | 41.04687 | -71.95087 | 30715 ft | 423 kts | 239° |
| 2026-05-03 21:22 | 41.03066 | -71.98341 | 30953 ft | 422 kts | 243° |
| 2026-05-03 21:22 | 41.01750 | -72.01807 | 31192 ft | 420 kts | 249° |
| 2026-05-03 21:23 | 41.00574 | -72.05342 | 31438 ft | 420 kts | 249° |
| 2026-05-03 21:23 | 40.99390 | -72.08879 | 31695 ft | 420 kts | 248° |
| 2026-05-03 21:23 | 40.98198 | -72.12368 | 31946 ft | 421 kts | 248° |
| 2026-05-03 21:23 | 40.96972 | -72.15885 | 32187 ft | 421 kts | 248° |
| 2026-05-03 21:24 | 40.95735 | -72.19387 | 32537 ft | 417 kts | 248° |
| 2026-05-03 21:24 | 40.94507 | -72.22853 | 32881 ft | 415 kts | 248° |
| 2026-05-03 21:24 | 40.93282 | -72.26304 | 33146 ft | 414 kts | 248° |
| 2026-05-03 21:24 | 40.92048 | -72.29742 | 33370 ft | 413 kts | 245° |
| 2026-05-03 21:25 | 40.90475 | -72.32942 | 33515 ft | 419 kts | 233° |
| 2026-05-03 21:25 | 40.88394 | -72.35693 | 33533 ft | 428 kts | 223° |
| 2026-05-03 21:25 | 40.84004 | -72.40943 | 33632 ft | 429 kts | 230° |
| 2026-05-03 21:26 | 40.81911 | -72.43738 | 33882 ft | 427 kts | 230° |
| 2026-05-03 21:26 | 40.79816 | -72.46502 | 34118 ft | 426 kts | 227° |
| 2026-05-03 21:26 | 40.77569 | -72.49063 | 34279 ft | 427 kts | 224° |
| 2026-05-03 21:26 | 40.75230 | -72.51522 | 34309 ft | 431 kts | 223° |
| 2026-05-03 21:27 | 40.71340 | -72.55655 | 34393 ft | 433 kts | 224° |
| 2026-05-03 21:27 | 40.66940 | -72.61058 | 34478 ft | 430 kts | 236° |
| 2026-05-03 21:28 | 40.65096 | -72.64160 | 34646 ft | 428 kts | 236° |
| 2026-05-03 21:28 | 40.63255 | -72.67228 | 34873 ft | 425 kts | 235° |
| 2026-05-03 21:28 | 40.61405 | -72.70266 | 35039 ft | 425 kts | 235° |
| 2026-05-03 21:28 | 40.59533 | -72.73301 | 35025 ft | 429 kts | 234° |
| 2026-05-03 21:29 | 40.55747 | -72.79367 | 35045 ft | 434 kts | 234° |
| 2026-05-03 21:29 | 40.51888 | -72.85503 | 35182 ft | 435 kts | 234° |
| 2026-05-03 21:30 | 40.49963 | -72.88554 | 35435 ft | 431 kts | 234° |
| 2026-05-03 21:30 | 40.48055 | -72.91576 | 35661 ft | 428 kts | 234° |
| 2026-05-03 21:30 | 40.44241 | -72.97616 | 35718 ft | 431 kts | 234° |
| 2026-05-03 21:31 | 40.40396 | -73.03699 | 35728 ft | 435 kts | 234° |
| 2026-05-03 21:31 | 40.38462 | -73.06752 | 35840 ft | 433 kts | 234° |
| 2026-05-03 21:31 | 40.36544 | -73.09775 | 36018 ft | 431 kts | 234° |
| 2026-05-03 21:32 | 40.34648 | -73.12761 | 36164 ft | 428 kts | 234° |
| 2026-05-03 21:32 | 40.32744 | -73.15755 | 36422 ft | 424 kts | 234° |
| 2026-05-03 21:32 | 40.30860 | -73.18716 | 36636 ft | 420 kts | 234° |
| 2026-05-03 21:32 | 40.28982 | -73.21668 | 36656 ft | 421 kts | 234° |
| 2026-05-03 21:33 | 40.25217 | -73.27579 | 36684 ft | 423 kts | 234° |
| 2026-05-03 21:33 | 40.21450 | -73.33482 | 36646 ft | 426 kts | 234° |
| 2026-05-03 21:34 | 40.17636 | -73.39443 | 36651 ft | 428 kts | 234° |
| 2026-05-03 21:34 | 40.13790 | -73.45442 | 36776 ft | 429 kts | 234° |
| 2026-05-03 21:35 | 40.09950 | -73.51419 | 36997 ft | 428 kts | 234° |
| 2026-05-03 21:35 | 40.08037 | -73.54392 | 37136 ft | 426 kts | 234° |
| 2026-05-03 21:35 | 40.06129 | -73.57356 | 37280 ft | 425 kts | 234° |
| 2026-05-03 21:36 | 40.04233 | -73.60299 | 37418 ft | 423 kts | 234° |
| 2026-05-03 21:36 | 40.02346 | -73.63226 | 37566 ft | 421 kts | 234° |
| 2026-05-03 21:36 | 39.98565 | -73.69083 | 37613 ft | 423 kts | 234° |
| 2026-05-03 21:37 | 39.94473 | -73.74625 | 37611 ft | 433 kts | 221° |
| 2026-05-03 21:37 | 39.89465 | -73.79061 | 37616 ft | 436 kts | 221° |
| 2026-05-03 21:38 | 39.84548 | -73.83623 | 37628 ft | 437 kts | 222° |
| 2026-05-03 21:38 | 39.79611 | -73.88293 | 37625 ft | 439 kts | 222° |
| 2026-05-03 21:39 | 39.74654 | -73.92975 | 37622 ft | 441 kts | 222° |
| 2026-05-03 21:39 | 39.69670 | -73.97663 | 37649 ft | 443 kts | 222° |
| 2026-05-03 21:40 | 39.64677 | -74.02347 | 37754 ft | 442 kts | 222° |
| 2026-05-03 21:40 | 39.59686 | -74.07022 | 37841 ft | 442 kts | 222° |
| 2026-05-03 21:41 | 39.54704 | -74.11682 | 37930 ft | 441 kts | 222° |
| 2026-05-03 21:41 | 39.49715 | -74.16318 | 38069 ft | 440 kts | 221° |
| 2026-05-03 21:42 | 39.44748 | -74.20861 | 38163 ft | 439 kts | 221° |
| 2026-05-03 21:42 | 39.39768 | -74.25400 | 38186 ft | 437 kts | 221° |
| 2026-05-03 21:43 | 39.34808 | -74.29924 | 38198 ft | 435 kts | 221° |
| 2026-05-03 21:43 | 39.29867 | -74.34427 | 38193 ft | 434 kts | 221° |
| 2026-05-03 21:44 | 39.24933 | -74.38917 | 38193 ft | 433 kts | 221° |
| 2026-05-03 21:44 | 39.20015 | -74.43384 | 38197 ft | 432 kts | 221° |
| 2026-05-03 21:45 | 39.15108 | -74.47833 | 38204 ft | 430 kts | 221° |
| 2026-05-03 21:45 | 39.10239 | -74.52240 | 38216 ft | 429 kts | 221° |
| 2026-05-03 21:46 | 39.05353 | -74.56655 | 38218 ft | 428 kts | 221° |
| 2026-05-03 21:46 | 39.00485 | -74.61046 | 38222 ft | 427 kts | 221° |
| 2026-05-03 21:47 | 38.95625 | -74.65423 | 38225 ft | 426 kts | 221° |
| 2026-05-03 21:47 | 38.90772 | -74.69786 | 38231 ft | 426 kts | 221° |
| 2026-05-03 21:48 | 38.85941 | -74.74124 | 38228 ft | 427 kts | 221° |
| 2026-05-03 21:48 | 38.81062 | -74.78496 | 38235 ft | 428 kts | 221° |
| 2026-05-03 21:49 | 38.76169 | -74.82871 | 38230 ft | 427 kts | 221° |
| 2026-05-03 21:49 | 38.71297 | -74.87219 | 38238 ft | 427 kts | 221° |
| 2026-05-03 21:50 | 38.66414 | -74.91573 | 38248 ft | 428 kts | 221° |
| 2026-05-03 21:50 | 38.61516 | -74.95933 | 38250 ft | 429 kts | 221° |
| 2026-05-03 21:51 | 38.56605 | -75.00295 | 38249 ft | 430 kts | 221° |
| 2026-05-03 21:51 | 38.51715 | -75.04632 | 38243 ft | 431 kts | 221° |
| 2026-05-03 21:52 | 38.46772 | -75.09009 | 38244 ft | 432 kts | 221° |
| 2026-05-03 21:52 | 38.41822 | -75.13384 | 38239 ft | 433 kts | 222° |
| 2026-05-03 21:53 | 38.36862 | -75.17760 | 38239 ft | 434 kts | 222° |
| 2026-05-03 21:53 | 38.31888 | -75.22143 | 38239 ft | 435 kts | 222° |
| 2026-05-03 21:54 | 38.26939 | -75.26496 | 38242 ft | 435 kts | 222° |
| 2026-05-03 21:54 | 38.21902 | -75.30813 | 38238 ft | 438 kts | 220° |
| 2026-05-03 21:55 | 38.16745 | -75.34971 | 38258 ft | 439 kts | 220° |
| 2026-05-03 21:55 | 38.11595 | -75.39138 | 38255 ft | 439 kts | 220° |
| 2026-05-03 21:56 | 38.06437 | -75.43338 | 38255 ft | 440 kts | 220° |
| 2026-05-03 21:56 | 38.01349 | -75.47631 | 38258 ft | 438 kts | 222° |
| 2026-05-03 21:57 | 37.96352 | -75.52045 | 38257 ft | 438 kts | 222° |
| 2026-05-03 21:57 | 37.91357 | -75.56423 | 38259 ft | 439 kts | 222° |
| 2026-05-03 21:58 | 37.86318 | -75.60805 | 38256 ft | 439 kts | 222° |
| 2026-05-03 21:58 | 37.81023 | -75.64799 | 38259 ft | 450 kts | 213° |
| 2026-05-03 21:59 | 37.75328 | -75.68097 | 38270 ft | 451 kts | 213° |
| 2026-05-03 21:59 | 37.69634 | -75.71436 | 38272 ft | 450 kts | 214° |
| 2026-05-03 22:00 | 37.63967 | -75.74815 | 38288 ft | 450 kts | 214° |
| 2026-05-03 22:00 | 37.58311 | -75.78207 | 38277 ft | 450 kts | 214° |
| 2026-05-03 22:01 | 37.52684 | -75.81580 | 38276 ft | 450 kts | 214° |
| 2026-05-03 22:01 | 37.47022 | -75.84967 | 38278 ft | 450 kts | 214° |
| 2026-05-03 22:02 | 37.41355 | -75.88349 | 38278 ft | 450 kts | 214° |
| 2026-05-03 22:02 | 37.35696 | -75.91721 | 38282 ft | 450 kts | 214° |
| 2026-05-03 22:03 | 37.30072 | -75.95065 | 38293 ft | 449 kts | 214° |
| 2026-05-03 22:03 | 37.24439 | -75.98408 | 38281 ft | 446 kts | 214° |
| 2026-05-03 22:04 | 37.18845 | -76.01723 | 38282 ft | 443 kts | 214° |
| 2026-05-03 22:04 | 37.13316 | -76.04995 | 38279 ft | 441 kts | 214° |
| 2026-05-03 22:05 | 37.07782 | -76.08267 | 38277 ft | 439 kts | 214° |
| 2026-05-03 22:05 | 37.02256 | -76.11528 | 38273 ft | 438 kts | 214° |
| 2026-05-03 22:06 | 36.96745 | -76.14775 | 38265 ft | 437 kts | 214° |
| 2026-05-03 22:06 | 36.91240 | -76.18013 | 38269 ft | 437 kts | 214° |
| 2026-05-03 22:07 | 36.85762 | -76.21230 | 38277 ft | 437 kts | 214° |
| 2026-05-03 22:07 | 36.80247 | -76.24464 | 38277 ft | 438 kts | 214° |
| 2026-05-03 22:08 | 36.74729 | -76.27693 | 38279 ft | 438 kts | 214° |
| 2026-05-03 22:08 | 36.69209 | -76.30918 | 38281 ft | 438 kts | 214° |
| 2026-05-03 22:09 | 36.63732 | -76.34113 | 38282 ft | 437 kts | 214° |
| 2026-05-03 22:10 | 36.55453 | -76.38933 | 38276 ft | 437 kts | 214° |
| 2026-05-03 22:10 | 36.49944 | -76.42134 | 38280 ft | 437 kts | 214° |
| 2026-05-03 22:11 | 36.44473 | -76.45308 | 38276 ft | 436 kts | 214° |
| 2026-05-03 22:11 | 36.38975 | -76.48492 | 38290 ft | 434 kts | 214° |
| 2026-05-03 22:12 | 36.33506 | -76.51654 | 38276 ft | 433 kts | 214° |
| 2026-05-03 22:12 | 36.28045 | -76.54807 | 38284 ft | 431 kts | 214° |
| 2026-05-03 22:13 | 36.22646 | -76.57920 | 38287 ft | 429 kts | 214° |
| 2026-05-03 22:13 | 36.17242 | -76.61031 | 38290 ft | 427 kts | 214° |
| 2026-05-03 22:14 | 36.11857 | -76.64126 | 38289 ft | 426 kts | 214° |
| 2026-05-03 22:14 | 36.06494 | -76.67204 | 38299 ft | 424 kts | 214° |
| 2026-05-03 22:15 | 36.01144 | -76.70271 | 38289 ft | 423 kts | 214° |
| 2026-05-03 22:15 | 35.96704 | -76.72812 | 38294 ft | 422 kts | 214° |
| 2026-05-03 22:16 | 35.91383 | -76.75853 | 38288 ft | 421 kts | 214° |
| 2026-05-03 22:16 | 35.86106 | -76.78865 | 38286 ft | 419 kts | 214° |
| 2026-05-03 22:17 | 35.80811 | -76.81882 | 38284 ft | 419 kts | 214° |
| 2026-05-03 22:17 | 35.75526 | -76.84890 | 38305 ft | 418 kts | 214° |
| 2026-05-03 22:18 | 35.70247 | -76.87889 | 38299 ft | 417 kts | 214° |
| 2026-05-03 22:18 | 35.64968 | -76.90884 | 38298 ft | 417 kts | 214° |
| 2026-05-03 22:19 | 35.59699 | -76.93870 | 38296 ft | 417 kts | 213° |
| 2026-05-03 22:19 | 35.54467 | -76.96829 | 38303 ft | 416 kts | 213° |
| 2026-05-03 22:20 | 35.49206 | -76.99801 | 38295 ft | 416 kts | 213° |
| 2026-05-03 22:20 | 35.43948 | -77.02767 | 38295 ft | 415 kts | 213° |
| 2026-05-03 22:21 | 35.38701 | -77.05721 | 38295 ft | 415 kts | 213° |
| 2026-05-03 22:21 | 35.33494 | -77.08650 | 38294 ft | 414 kts | 213° |
| 2026-05-03 22:22 | 35.28253 | -77.11593 | 38300 ft | 413 kts | 213° |
| 2026-05-03 22:22 | 35.23027 | -77.14524 | 38297 ft | 412 kts | 213° |
| 2026-05-03 22:23 | 35.17815 | -77.17442 | 38290 ft | 411 kts | 213° |
| 2026-05-03 22:23 | 35.12659 | -77.20326 | 38294 ft | 410 kts | 213° |
| 2026-05-03 22:24 | 35.07465 | -77.23226 | 38291 ft | 409 kts | 213° |
| 2026-05-03 22:24 | 35.02292 | -77.26111 | 38302 ft | 408 kts | 213° |
| 2026-05-03 22:25 | 34.97131 | -77.28985 | 38295 ft | 407 kts | 213° |
| 2026-05-03 22:25 | 34.92009 | -77.31834 | 38295 ft | 406 kts | 213° |
| 2026-05-03 22:26 | 34.86873 | -77.34686 | 38286 ft | 405 kts | 213° |
| 2026-05-03 22:26 | 34.81736 | -77.37535 | 38289 ft | 404 kts | 213° |
| 2026-05-03 22:27 | 34.76617 | -77.40371 | 38291 ft | 403 kts | 213° |
| 2026-05-03 22:27 | 34.71540 | -77.43179 | 38296 ft | 403 kts | 213° |
| 2026-05-03 22:28 | 34.66438 | -77.45998 | 38288 ft | 402 kts | 213° |
| 2026-05-03 22:28 | 34.61337 | -77.48812 | 38294 ft | 401 kts | 213° |
| 2026-05-03 22:29 | 34.56258 | -77.51611 | 38292 ft | 401 kts | 213° |
| 2026-05-03 22:29 | 34.51110 | -77.54272 | 38291 ft | 409 kts | 206° |
| 2026-05-03 22:29 | 34.48281 | -77.55009 | 38311 ft | 422 kts | 198° |
| 2026-05-03 22:30 | 34.45406 | -77.55436 | 38313 ft | 419 kts | 200° |
| 2026-05-03 22:30 | 34.39671 | -77.56638 | 38308 ft | 416 kts | 202° |
| 2026-05-03 22:31 | 34.33983 | -77.57951 | 38303 ft | 416 kts | 202° |
| 2026-05-03 22:31 | 34.28290 | -77.59239 | 38303 ft | 416 kts | 201° |
| 2026-05-03 22:32 | 34.22585 | -77.60503 | 38299 ft | 416 kts | 201° |
| 2026-05-03 22:32 | 34.16884 | -77.61757 | 38306 ft | 416 kts | 201° |
| 2026-05-03 22:33 | 34.11189 | -77.63006 | 38299 ft | 416 kts | 201° |
| 2026-05-03 22:33 | 34.05532 | -77.64246 | 38312 ft | 415 kts | 201° |
| 2026-05-03 22:34 | 33.99847 | -77.65491 | 38317 ft | 415 kts | 201° |
| 2026-05-03 22:34 | 33.94173 | -77.66732 | 38323 ft | 414 kts | 201° |
| 2026-05-03 22:35 | 33.88498 | -77.67971 | 38317 ft | 413 kts | 201° |
| 2026-05-03 22:35 | 33.82882 | -77.69196 | 38322 ft | 412 kts | 201° |
| 2026-05-03 22:36 | 33.77227 | -77.70429 | 38322 ft | 412 kts | 201° |
| 2026-05-03 22:36 | 33.71595 | -77.71655 | 38332 ft | 411 kts | 201° |
| 2026-05-03 22:37 | 33.66041 | -77.73075 | 38333 ft | 402 kts | 206° |
| 2026-05-03 22:37 | 33.60645 | -77.74882 | 38331 ft | 402 kts | 206° |
| 2026-05-03 22:38 | 33.55272 | -77.76651 | 38331 ft | 402 kts | 205° |
| 2026-05-03 22:38 | 33.49868 | -77.78416 | 38334 ft | 402 kts | 205° |
| 2026-05-03 22:39 | 33.44470 | -77.80176 | 38333 ft | 402 kts | 205° |
| 2026-05-03 22:39 | 33.39064 | -77.81937 | 38340 ft | 402 kts | 205° |
| 2026-05-03 22:40 | 33.33702 | -77.83681 | 38339 ft | 402 kts | 205° |
| 2026-05-03 22:40 | 33.28292 | -77.85438 | 38346 ft | 402 kts | 205° |
| 2026-05-03 22:41 | 33.22893 | -77.87190 | 38340 ft | 402 kts | 205° |
| 2026-05-03 22:41 | 33.17487 | -77.88942 | 38350 ft | 402 kts | 205° |
| 2026-05-03 22:42 | 33.12123 | -77.90678 | 38341 ft | 402 kts | 205° |
| 2026-05-03 22:42 | 33.09386 | -77.91563 | 38551 ft | 402 kts | 206° |
| 2026-05-03 22:42 | 33.06709 | -77.92429 | 38439 ft | 404 kts | 206° |
| 2026-05-03 22:43 | 33.01287 | -77.94212 | 38365 ft | 404 kts | 207° |
| 2026-05-03 22:43 | 32.95887 | -77.96067 | 38351 ft | 403 kts | 207° |
| 2026-05-03 22:44 | 32.90484 | -77.97928 | 38352 ft | 403 kts | 207° |
| 2026-05-03 22:44 | 32.85091 | -77.99776 | 38353 ft | 402 kts | 207° |
| 2026-05-03 22:45 | 32.79713 | -78.01611 | 38351 ft | 402 kts | 207° |
| 2026-05-03 22:45 | 32.74346 | -78.03440 | 38349 ft | 401 kts | 207° |
| 2026-05-03 22:46 | 32.69023 | -78.05251 | 38353 ft | 400 kts | 207° |
| 2026-05-03 22:46 | 32.63675 | -78.07068 | 38349 ft | 399 kts | 207° |
| 2026-05-03 22:47 | 32.58334 | -78.08881 | 38350 ft | 399 kts | 206° |
| 2026-05-03 22:47 | 32.53000 | -78.10689 | 38351 ft | 398 kts | 206° |
| 2026-05-03 22:48 | 32.47665 | -78.12496 | 38355 ft | 398 kts | 206° |
| 2026-05-03 22:48 | 32.42383 | -78.14283 | 38355 ft | 398 kts | 206° |
| 2026-05-03 22:49 | 32.37063 | -78.16079 | 38356 ft | 397 kts | 206° |
| 2026-05-03 22:49 | 32.31737 | -78.17876 | 38354 ft | 397 kts | 206° |
| 2026-05-03 22:50 | 32.26415 | -78.19669 | 38354 ft | 397 kts | 206° |
| 2026-05-03 22:50 | 32.21094 | -78.21460 | 38351 ft | 398 kts | 206° |
| 2026-05-03 22:51 | 32.15801 | -78.23239 | 38349 ft | 398 kts | 206° |
| 2026-05-03 22:51 | 32.10477 | -78.25027 | 38358 ft | 398 kts | 206° |
| 2026-05-03 22:52 | 32.05149 | -78.26813 | 38345 ft | 398 kts | 206° |
| 2026-05-03 22:52 | 31.99811 | -78.28601 | 38347 ft | 398 kts | 206° |
| 2026-05-03 22:53 | 31.94469 | -78.30388 | 38349 ft | 398 kts | 206° |
| 2026-05-03 22:53 | 31.89127 | -78.32172 | 38349 ft | 399 kts | 206° |
| 2026-05-03 22:54 | 31.83823 | -78.33942 | 38347 ft | 399 kts | 206° |
| 2026-05-03 22:54 | 31.78485 | -78.35721 | 38351 ft | 399 kts | 206° |
| 2026-05-03 22:55 | 31.73142 | -78.37500 | 38345 ft | 399 kts | 206° |
| 2026-05-03 22:55 | 31.67796 | -78.39278 | 38349 ft | 399 kts | 205° |
| 2026-05-03 22:56 | 31.62466 | -78.41048 | 38342 ft | 399 kts | 205° |
| 2026-05-03 22:56 | 31.57095 | -78.42830 | 38336 ft | 399 kts | 205° |
| 2026-05-03 22:57 | 31.51786 | -78.44588 | 38344 ft | 399 kts | 205° |
| 2026-05-03 22:57 | 31.46430 | -78.46332 | 38339 ft | 399 kts | 205° |
| 2026-05-03 22:58 | 31.41070 | -78.48067 | 38352 ft | 399 kts | 205° |
| 2026-05-03 22:58 | 31.35710 | -78.49802 | 38337 ft | 400 kts | 205° |
| 2026-05-03 22:59 | 31.30381 | -78.51523 | 38335 ft | 393 kts | 205° |
| 2026-05-03 22:59 | 31.25156 | -78.53207 | 38334 ft | 388 kts | 205° |
| 2026-05-03 23:00 | 31.19942 | -78.54897 | 38345 ft | 390 kts | 205° |
| 2026-05-03 23:00 | 31.14734 | -78.56583 | 38365 ft | 391 kts | 205° |
| 2026-05-03 23:00 | 31.12094 | -78.57437 | 38115 ft | 396 kts | 205° |
| 2026-05-03 23:01 | 31.09429 | -78.58298 | 38072 ft | 397 kts | 205° |
| 2026-05-03 23:01 | 31.04066 | -78.60026 | 38007 ft | 401 kts | 205° |
| 2026-05-03 23:02 | 30.98668 | -78.61760 | 37999 ft | 403 kts | 205° |
| 2026-05-03 23:02 | 30.93252 | -78.63498 | 37996 ft | 405 kts | 205° |
| 2026-05-03 23:03 | 30.87812 | -78.65243 | 37988 ft | 406 kts | 205° |
| 2026-05-03 23:03 | 30.82391 | -78.66979 | 37989 ft | 406 kts | 205° |
| 2026-05-03 23:04 | 30.76934 | -78.68725 | 37986 ft | 406 kts | 205° |
| 2026-05-03 23:04 | 30.72403 | -78.70173 | 37988 ft | 406 kts | 205° |
| 2026-05-03 23:05 | 30.66957 | -78.71912 | 37984 ft | 405 kts | 205° |
| 2026-05-03 23:05 | 30.61520 | -78.73646 | 37983 ft | 405 kts | 205° |
| 2026-05-03 23:06 | 30.56093 | -78.75376 | 37985 ft | 404 kts | 205° |
| 2026-05-03 23:06 | 30.50677 | -78.77100 | 37980 ft | 403 kts | 205° |
| 2026-05-03 23:07 | 30.45259 | -78.78824 | 37802 ft | 403 kts | 204° |
| 2026-05-03 23:07 | 30.39846 | -78.80543 | 37940 ft | 404 kts | 204° |
| 2026-05-03 23:08 | 30.34397 | -78.82274 | 37979 ft | 408 kts | 204° |
| 2026-05-03 23:08 | 30.28940 | -78.84004 | 37990 ft | 411 kts | 204° |
| 2026-05-03 23:09 | 30.23393 | -78.85760 | 37996 ft | 414 kts | 204° |
| 2026-05-03 23:09 | 30.17811 | -78.87524 | 37987 ft | 418 kts | 204° |
| 2026-05-03 23:10 | 30.12178 | -78.89303 | 37984 ft | 421 kts | 204° |
| 2026-05-03 23:10 | 30.06516 | -78.91088 | 37980 ft | 424 kts | 204° |
| 2026-05-03 23:11 | 30.00803 | -78.92887 | 37986 ft | 426 kts | 204° |
| 2026-05-03 23:11 | 29.95056 | -78.94695 | 37976 ft | 429 kts | 204° |
| 2026-05-03 23:12 | 29.89321 | -78.96496 | 37980 ft | 431 kts | 204° |
| 2026-05-03 23:12 | 29.83524 | -78.98316 | 37974 ft | 433 kts | 204° |
| 2026-05-03 23:13 | 29.77636 | -78.99963 | 37979 ft | 440 kts | 199° |
| 2026-05-03 23:13 | 29.71543 | -79.01059 | 37965 ft | 445 kts | 197° |
| 2026-05-03 23:14 | 29.65395 | -79.02082 | 37968 ft | 447 kts | 197° |
| 2026-05-03 23:14 | 29.59235 | -79.03168 | 37966 ft | 448 kts | 198° |
| 2026-05-03 23:15 | 29.53095 | -79.04291 | 37963 ft | 450 kts | 198° |
| 2026-05-03 23:15 | 29.46871 | -79.05439 | 37963 ft | 451 kts | 198° |
| 2026-05-03 23:16 | 29.40687 | -79.06579 | 37973 ft | 453 kts | 198° |
| 2026-05-03 23:16 | 29.34452 | -79.07725 | 37960 ft | 455 kts | 198° |
| 2026-05-03 23:17 | 29.28190 | -79.08874 | 37962 ft | 456 kts | 198° |
| 2026-05-03 23:17 | 29.21913 | -79.10023 | 37954 ft | 456 kts | 198° |
| 2026-05-03 23:18 | 29.15638 | -79.11170 | 37952 ft | 456 kts | 198° |
| 2026-05-03 23:18 | 29.09388 | -79.12311 | 37948 ft | 454 kts | 198° |
| 2026-05-03 23:19 | 29.03186 | -79.13441 | 37943 ft | 453 kts | 198° |
| 2026-05-03 23:19 | 28.96972 | -79.14573 | 37941 ft | 450 kts | 198° |
| 2026-05-03 23:20 | 28.90786 | -79.15700 | 37943 ft | 448 kts | 198° |
| 2026-05-03 23:20 | 28.84639 | -79.16818 | 37937 ft | 447 kts | 198° |
| 2026-05-03 23:21 | 28.78504 | -79.17933 | 37943 ft | 446 kts | 198° |
| 2026-05-03 23:21 | 28.72380 | -79.19046 | 37924 ft | 446 kts | 198° |
| 2026-05-03 23:21 | 28.69314 | -79.19603 | 37754 ft | 445 kts | 198° |
| 2026-05-03 23:22 | 28.63220 | -79.20704 | 37355 ft | 442 kts | 198° |
| 2026-05-03 23:22 | 28.60210 | -79.21250 | 37002 ft | 444 kts | 198° |
| 2026-05-03 23:22 | 28.57157 | -79.21803 | 36758 ft | 444 kts | 198° |
| 2026-05-03 23:23 | 28.54084 | -79.22360 | 36484 ft | 446 kts | 198° |
| 2026-05-03 23:23 | 28.51005 | -79.22916 | 36235 ft | 446 kts | 198° |
| 2026-05-03 23:23 | 28.47941 | -79.23469 | 36001 ft | 447 kts | 198° |
| 2026-05-03 23:23 | 28.44856 | -79.24026 | 35754 ft | 448 kts | 197° |
| 2026-05-03 23:24 | 28.41774 | -79.24582 | 35526 ft | 449 kts | 197° |
| 2026-05-03 23:24 | 28.38722 | -79.25132 | 35294 ft | 450 kts | 197° |
| 2026-05-03 23:24 | 28.35625 | -79.25690 | 35053 ft | 451 kts | 197° |
| 2026-05-03 23:24 | 28.32515 | -79.26254 | 34828 ft | 452 kts | 198° |
| 2026-05-03 23:25 | 28.29462 | -79.27013 | 34602 ft | 448 kts | 202° |
| 2026-05-03 23:25 | 28.26465 | -79.27979 | 34371 ft | 447 kts | 204° |
| 2026-05-03 23:25 | 28.23490 | -79.29017 | 34150 ft | 448 kts | 204° |
| 2026-05-03 23:25 | 28.20538 | -79.30052 | 33903 ft | 450 kts | 204° |
| 2026-05-03 23:26 | 28.17533 | -79.31081 | 33646 ft | 452 kts | 203° |
| 2026-05-03 23:26 | 28.14510 | -79.32090 | 33388 ft | 453 kts | 203° |
| 2026-05-03 23:26 | 28.11469 | -79.33085 | 33136 ft | 455 kts | 203° |
| 2026-05-03 23:26 | 28.08415 | -79.34074 | 32894 ft | 457 kts | 202° |
| 2026-05-03 23:27 | 28.05343 | -79.35065 | 32638 ft | 459 kts | 202° |
| 2026-05-03 23:27 | 28.02264 | -79.36058 | 32396 ft | 460 kts | 202° |
| 2026-05-03 23:27 | 27.99179 | -79.37054 | 32143 ft | 462 kts | 202° |
| 2026-05-03 23:27 | 27.96125 | -79.38039 | 31893 ft | 462 kts | 202° |
| 2026-05-03 23:28 | 27.93028 | -79.39039 | 31657 ft | 462 kts | 202° |
| 2026-05-03 23:28 | 27.89934 | -79.40037 | 31419 ft | 462 kts | 202° |
| 2026-05-03 23:28 | 27.86842 | -79.41034 | 31179 ft | 462 kts | 202° |
| 2026-05-03 23:28 | 27.83754 | -79.42028 | 30942 ft | 461 kts | 202° |
| 2026-05-03 23:29 | 27.80669 | -79.43021 | 30707 ft | 460 kts | 202° |
| 2026-05-03 23:29 | 27.77598 | -79.44008 | 30469 ft | 458 kts | 202° |
| 2026-05-03 23:29 | 27.74535 | -79.44994 | 30148 ft | 458 kts | 202° |
| 2026-05-03 23:29 | 27.71530 | -79.45959 | 29732 ft | 452 kts | 202° |
| 2026-05-03 23:30 | 27.68526 | -79.46922 | 29233 ft | 446 kts | 202° |
| 2026-05-03 23:30 | 27.66514 | -79.47566 | 28930 ft | 441 kts | 202° |